createdAt,value
2023-05-22T00:01:14.946Z,49.30
2023-05-22T00:04:58.780Z,49.40
2023-05-22T00:08:40.768Z,49.50
2023-05-22T00:12:22.649Z,49.50
2023-05-22T00:16:04.669Z,49.50
2023-05-22T00:19:46.404Z,49.60
2023-05-22T00:23:28.288Z,49.90
2023-05-22T00:27:10.072Z,50.10
2023-05-22T00:30:51.973Z,50.20
2023-05-22T00:34:33.704Z,50.20
2023-05-22T00:38:37.584Z,50.20
2023-05-22T00:42:19.411Z,51.60
2023-05-22T00:46:01.317Z,50.20
2023-05-22T00:49:51.547Z,50.20
2023-05-22T00:53:34.026Z,50.30
2023-05-22T00:57:15.856Z,50.40
2023-05-22T01:00:57.675Z,50.50
2023-05-22T01:04:39.573Z,50.60
2023-05-22T01:08:21.499Z,50.60
2023-05-22T01:12:27.548Z,50.70
2023-05-22T01:16:34.583Z,52.20
2023-05-22T01:20:24.422Z,52.60
2023-05-22T01:24:31.252Z,51.20
2023-05-22T01:28:37.882Z,52.30
2023-05-22T01:32:25.828Z,52.00
2023-05-22T01:36:08.793Z,51.70
2023-05-22T01:39:52.409Z,51.30
2023-05-22T01:43:34.934Z,51.40
2023-05-22T01:47:18.041Z,51.60
2023-05-22T01:51:25.828Z,51.70
2023-05-22T01:55:17.474Z,52.90
2023-05-22T01:59:28.031Z,51.50
2023-05-22T02:03:18.859Z,52.40
2023-05-22T02:07:02.288Z,51.80
2023-05-22T02:10:45.539Z,51.60
2023-05-22T02:14:28.271Z,51.70
2023-05-22T02:18:13.067Z,52.00
2023-05-22T02:21:54.974Z,52.30
2023-05-22T02:25:37.003Z,52.30
2023-05-22T02:29:18.792Z,52.20
2023-05-22T02:33:00.656Z,52.20
2023-05-22T02:36:42.441Z,52.10
2023-05-22T02:40:24.179Z,52.00
2023-05-22T02:44:06.035Z,52.00
2023-05-22T02:47:47.815Z,51.90
2023-05-22T02:51:29.570Z,51.90
2023-05-22T02:55:11.414Z,51.90
2023-05-22T02:58:53.145Z,52.00
2023-05-22T03:02:36.635Z,52.00
2023-05-22T03:06:18.603Z,52.10
2023-05-22T03:10:00.393Z,52.30
2023-05-22T03:13:42.122Z,52.40
2023-05-22T03:17:23.865Z,52.50
2023-05-22T03:21:06.561Z,52.60
2023-05-22T03:24:48.359Z,52.70
2023-05-22T03:28:30.231Z,52.90
2023-05-22T03:32:12.046Z,52.80
2023-05-22T03:35:53.760Z,52.70
2023-05-22T03:39:36.119Z,52.60
2023-05-22T03:43:17.856Z,52.50
2023-05-22T03:46:59.617Z,52.50
2023-05-22T03:50:41.701Z,52.50
2023-05-22T03:54:23.640Z,52.60
2023-05-22T03:58:05.450Z,52.70
2023-05-22T04:01:48.752Z,52.80
2023-05-22T04:05:31.884Z,52.90
2023-05-22T04:09:14.994Z,53.00
2023-05-22T04:12:56.833Z,53.30
2023-05-22T04:16:38.611Z,53.50
2023-05-22T04:20:22.235Z,53.70
2023-05-22T04:24:07.195Z,53.70
2023-05-22T04:27:50.599Z,53.70
2023-05-22T04:31:32.565Z,53.80
2023-05-22T04:35:18.480Z,53.90
2023-05-22T04:39:00.472Z,53.80
2023-05-22T04:42:42.802Z,53.80
2023-05-22T04:46:24.565Z,53.80
2023-05-22T04:50:06.956Z,53.90
2023-05-22T04:53:49.775Z,54.00
2023-05-22T04:57:31.894Z,54.10
2023-05-22T05:01:13.668Z,54.30
2023-05-22T05:04:56.055Z,54.50
2023-05-22T05:08:37.887Z,54.70
2023-05-22T05:12:19.618Z,54.70
2023-05-22T05:16:01.502Z,54.70
2023-05-22T05:19:43.284Z,54.80
2023-05-22T05:23:25.093Z,55.00
2023-05-22T05:27:06.844Z,55.30
2023-05-22T05:30:48.599Z,55.40
2023-05-22T05:34:30.483Z,55.50
2023-05-22T05:38:12.363Z,55.50
2023-05-22T05:41:54.126Z,55.70
2023-05-22T05:45:35.903Z,55.80
2023-05-22T05:49:18.917Z,55.80
2023-05-22T05:53:01.499Z,55.70
2023-05-22T05:56:43.768Z,55.80
2023-05-22T06:00:25.932Z,55.80
2023-05-22T06:04:09.078Z,55.80
2023-05-22T06:07:51.771Z,55.80
2023-05-22T06:11:33.987Z,55.70
2023-05-22T06:15:15.773Z,55.70
2023-05-22T06:18:59.699Z,55.70
2023-05-22T06:22:41.712Z,55.60
2023-05-22T06:26:23.617Z,55.60
2023-05-22T06:30:06.081Z,55.50
2023-05-22T06:33:47.905Z,55.40
2023-05-22T06:37:31.352Z,55.40
2023-05-22T06:41:13.109Z,55.40
2023-05-22T06:44:54.902Z,55.40
2023-05-22T06:48:36.801Z,55.30
2023-05-22T06:52:18.618Z,55.20
2023-05-22T06:56:00.411Z,55.00
2023-05-22T06:59:42.215Z,54.80
2023-05-22T07:03:24.163Z,54.70
2023-05-22T07:07:05.987Z,54.60
2023-05-22T07:10:47.764Z,54.30
2023-05-22T07:14:29.527Z,54.10
2023-05-22T07:18:12.497Z,54.00
2023-05-22T07:21:54.293Z,53.80
2023-05-22T07:25:36.101Z,53.70
2023-05-22T07:29:17.834Z,53.50
2023-05-22T07:32:59.602Z,53.20
2023-05-22T07:36:41.931Z,53.20
2023-05-22T07:40:24.494Z,53.10
2023-05-22T07:44:08.198Z,53.00
2023-05-22T07:47:50.276Z,52.90
2023-05-22T07:51:32.262Z,52.80
2023-05-22T07:55:14.004Z,52.70
2023-05-22T07:58:55.755Z,52.60
2023-05-22T08:02:37.562Z,52.50
2023-05-22T08:06:19.733Z,52.40
2023-05-22T08:10:13.295Z,52.30
2023-05-22T08:13:56.278Z,52.10
2023-05-22T08:17:38.027Z,52.00
2023-05-22T08:21:19.960Z,51.90
2023-05-22T08:25:01.709Z,51.80
2023-05-22T08:28:44.482Z,51.60
2023-05-22T08:32:26.728Z,51.40
2023-05-22T08:36:09.421Z,51.20
2023-05-22T08:39:51.235Z,51.10
2023-05-22T08:43:33.024Z,51.00
2023-05-22T08:47:15.532Z,50.70
2023-05-22T08:50:59.038Z,50.40
2023-05-22T08:54:45.330Z,50.40
2023-05-22T08:58:27.628Z,50.10
2023-05-22T09:02:10.141Z,50.00
2023-05-22T09:05:52.287Z,49.70
2023-05-22T09:09:41.054Z,49.70
2023-05-22T09:13:31.196Z,49.30
2023-05-22T09:17:15.994Z,48.80
2023-05-22T09:20:59.034Z,49.00
2023-05-22T09:24:44.578Z,48.90
2023-05-22T09:28:26.870Z,48.60
2023-05-22T09:32:14.350Z,48.50
2023-05-22T09:35:56.167Z,48.00
2023-05-22T09:39:45.964Z,48.30
2023-05-22T09:43:27.743Z,47.60
2023-05-22T09:47:12.455Z,48.00
2023-05-22T09:50:55.880Z,47.80
2023-05-22T09:54:45.376Z,47.50
2023-05-22T09:58:30.811Z,47.40
2023-05-22T10:02:13.352Z,47.40
2023-05-22T10:05:57.162Z,47.20
2023-05-22T10:09:40.950Z,47.20
2023-05-22T10:13:24.211Z,47.00
2023-05-22T10:17:06.986Z,47.00
2023-05-22T10:20:49.970Z,46.80
2023-05-22T10:24:32.165Z,46.50
2023-05-22T10:28:21.388Z,46.40
2023-05-22T10:32:19.634Z,46.20
2023-05-22T10:36:01.305Z,45.60
2023-05-22T10:39:58.599Z,45.50
2023-05-22T10:43:43.908Z,45.90
2023-05-22T10:47:26.536Z,45.90
2023-05-22T10:51:08.928Z,46.10
2023-05-22T10:54:54.750Z,45.90
2023-05-22T10:58:37.429Z,45.60
2023-05-22T11:02:32.129Z,45.80
2023-05-22T11:06:35.956Z,45.30
2023-05-22T11:10:27.413Z,45.20
2023-05-22T11:14:11.750Z,45.10
2023-05-22T11:18:02.175Z,45.40
2023-05-22T11:21:45.793Z,45.30
2023-05-22T11:25:28.933Z,45.20
2023-05-22T11:29:11.007Z,44.80
2023-05-22T11:32:53.449Z,44.70
2023-05-22T11:36:35.838Z,44.60
2023-05-22T11:40:20.939Z,44.60
2023-05-22T11:44:02.738Z,44.30
2023-05-22T11:47:45.006Z,44.00
2023-05-22T11:51:28.087Z,43.40
2023-05-22T11:55:14.292Z,42.60
2023-05-22T11:58:56.826Z,42.50
2023-05-22T12:02:39.170Z,42.30
2023-05-22T12:06:21.350Z,42.40
2023-05-22T12:10:07.204Z,42.00
2023-05-22T12:13:52.133Z,41.50
2023-05-22T12:17:36.922Z,41.40
2023-05-22T12:21:19.948Z,41.00
2023-05-22T12:25:01.691Z,40.90
2023-05-22T12:28:44.071Z,40.30
2023-05-22T12:32:27.007Z,39.60
2023-05-22T12:36:09.447Z,39.40
2023-05-22T12:39:58.559Z,38.90
2023-05-22T12:43:40.350Z,38.00
2023-05-22T12:47:23.628Z,38.70
2023-05-22T12:51:05.510Z,38.50
2023-05-22T12:54:47.386Z,38.40
2023-05-22T12:58:29.124Z,37.60
2023-05-22T13:02:11.046Z,37.70
2023-05-22T13:05:52.792Z,37.60
2023-05-22T13:09:34.613Z,37.30
2023-05-22T13:13:16.755Z,37.00
2023-05-22T13:16:58.563Z,36.60
2023-05-22T13:20:40.403Z,36.60
2023-05-22T13:24:22.148Z,36.10
2023-05-22T13:28:04.155Z,35.70
2023-05-22T13:31:45.947Z,35.40
2023-05-22T13:35:27.762Z,35.10
2023-05-22T13:39:09.612Z,34.90
2023-05-22T13:42:52.399Z,35.10
2023-05-22T13:46:34.302Z,35.00
2023-05-22T13:50:16.190Z,34.80
2023-05-22T13:53:57.984Z,34.70
2023-05-22T13:57:40.693Z,34.40
2023-05-22T14:01:23.047Z,34.30
2023-05-22T14:05:05.378Z,34.10
2023-05-22T14:08:47.160Z,33.80
2023-05-22T14:12:29.400Z,33.40
2023-05-22T14:16:11.269Z,33.60
2023-05-22T14:19:53.016Z,33.30
2023-05-22T14:23:34.808Z,33.20
2023-05-22T14:27:16.702Z,32.90
2023-05-22T14:30:58.584Z,32.60
2023-05-22T14:34:40.522Z,32.40
2023-05-22T14:38:22.293Z,31.90
2023-05-22T14:42:04.326Z,31.60
2023-05-22T14:45:46.104Z,31.70
2023-05-22T14:49:27.896Z,31.60
2023-05-22T14:53:09.726Z,31.10
2023-05-22T14:56:51.466Z,31.10
2023-05-22T15:00:33.213Z,31.00
2023-05-22T15:04:15.103Z,30.70
2023-05-22T15:07:58.598Z,30.80
2023-05-22T15:11:45.470Z,30.40
2023-05-22T15:15:27.128Z,30.10
2023-05-22T15:19:09.480Z,29.70
2023-05-22T15:22:51.262Z,30.10
2023-05-22T15:26:33.000Z,29.90
2023-05-22T15:30:16.967Z,29.60
2023-05-22T15:33:58.932Z,29.50
2023-05-22T15:37:40.800Z,29.50
2023-05-22T15:41:22.709Z,29.10
2023-05-22T15:45:04.885Z,29.20
2023-05-22T15:48:46.683Z,29.10
2023-05-22T15:52:28.489Z,29.20
2023-05-22T15:56:11.300Z,29.10
2023-05-22T15:59:53.157Z,29.10
2023-05-22T16:03:34.962Z,29.10
2023-05-22T16:07:18.841Z,29.30
2023-05-22T16:11:01.652Z,29.40
2023-05-22T16:14:43.613Z,29.30
2023-05-22T16:18:25.346Z,29.20
2023-05-22T16:22:07.154Z,29.00
2023-05-22T16:25:50.794Z,29.20
2023-05-22T16:29:32.759Z,29.10
2023-05-22T16:33:14.513Z,29.00
2023-05-22T16:36:56.280Z,29.40
2023-05-22T16:40:38.091Z,30.00
2023-05-22T16:44:19.838Z,30.40
2023-05-22T16:48:01.669Z,31.10
2023-05-22T16:51:43.539Z,31.70
2023-05-22T16:55:25.640Z,31.90
2023-05-22T16:59:07.414Z,31.80
2023-05-22T17:02:49.312Z,31.50
2023-05-22T17:06:31.857Z,31.40
2023-05-22T17:10:14.087Z,31.30
2023-05-22T17:13:56.140Z,31.80
2023-05-22T17:17:37.982Z,32.30
2023-05-22T17:21:20.595Z,32.80
2023-05-22T17:25:02.512Z,33.30
2023-05-22T17:28:44.596Z,33.70
2023-05-22T17:32:26.675Z,34.00
2023-05-22T17:36:08.556Z,33.80
2023-05-22T17:39:50.425Z,33.30
2023-05-22T17:43:35.061Z,33.50
2023-05-22T17:47:18.260Z,34.10
2023-05-22T17:51:00.373Z,34.60
2023-05-22T17:54:42.152Z,34.30
2023-05-22T17:58:23.854Z,34.00
2023-05-22T18:02:05.971Z,33.70
2023-05-22T18:05:49.147Z,33.80
2023-05-22T18:09:31.156Z,33.90
2023-05-22T18:13:13.327Z,34.00
2023-05-22T18:16:55.224Z,34.10
2023-05-22T18:20:37.749Z,34.10
2023-05-22T18:24:25.104Z,34.10
2023-05-22T18:28:08.198Z,34.30
2023-05-22T18:31:50.062Z,34.60
2023-05-22T18:35:31.939Z,35.00
2023-05-22T18:39:14.809Z,35.40
2023-05-22T18:42:56.595Z,36.00
2023-05-22T18:46:38.416Z,36.50
2023-05-22T18:50:22.140Z,36.80
2023-05-22T18:54:05.270Z,37.00
2023-05-22T18:57:47.029Z,37.40
2023-05-22T19:01:28.805Z,37.80
2023-05-22T19:05:10.814Z,38.30
2023-05-22T19:08:52.799Z,38.80
2023-05-22T19:12:34.542Z,39.30
2023-05-22T19:16:16.392Z,39.70
2023-05-22T19:19:58.251Z,39.90
2023-05-22T19:23:40.080Z,40.20
2023-05-22T19:27:21.903Z,40.40
2023-05-22T19:31:03.703Z,40.80
2023-05-22T19:34:46.463Z,41.10
2023-05-22T19:38:28.483Z,41.40
2023-05-22T19:42:11.237Z,41.60
2023-05-22T19:45:54.101Z,41.70
2023-05-22T19:49:37.154Z,42.00
2023-05-22T19:53:19.057Z,42.40
2023-05-22T19:57:00.887Z,42.60
2023-05-22T20:00:43.085Z,42.90
2023-05-22T20:04:25.096Z,43.10
2023-05-22T20:08:07.308Z,43.20
2023-05-22T20:11:49.036Z,43.30
2023-05-22T20:15:31.124Z,43.40
2023-05-22T20:19:14.556Z,43.90
2023-05-22T20:22:57.929Z,44.30
2023-05-22T20:26:39.694Z,44.40
2023-05-22T20:30:21.436Z,44.50
2023-05-22T20:34:04.676Z,44.60
2023-05-22T20:37:46.648Z,44.80
2023-05-22T20:41:28.418Z,44.90
2023-05-22T20:45:14.775Z,45.20
2023-05-22T20:48:58.372Z,45.40
2023-05-22T20:52:40.164Z,47.10
2023-05-22T20:56:21.904Z,45.80
2023-05-22T21:00:05.943Z,46.10
2023-05-22T21:03:47.817Z,46.40
2023-05-22T21:07:29.639Z,46.60
2023-05-22T21:11:11.558Z,46.60
2023-05-22T21:14:53.291Z,46.70
2023-05-22T21:18:35.408Z,46.90
2023-05-22T21:22:17.215Z,47.10
2023-05-22T21:25:58.992Z,47.20
2023-05-22T21:29:40.940Z,47.30
2023-05-22T21:33:22.708Z,47.30
2023-05-22T21:37:04.628Z,47.20
2023-05-22T21:40:46.431Z,47.20
2023-05-22T21:44:28.183Z,47.30
2023-05-22T21:48:09.956Z,47.20
2023-05-22T21:51:51.711Z,47.30
2023-05-22T21:55:35.221Z,47.50
2023-05-22T21:59:16.986Z,47.30
2023-05-22T22:02:58.838Z,47.40
2023-05-22T22:06:40.903Z,47.60
2023-05-22T22:10:23.029Z,47.80
2023-05-22T22:14:04.980Z,48.20
2023-05-22T22:17:47.458Z,48.50
2023-05-22T22:21:29.349Z,48.70
2023-05-22T22:25:12.047Z,49.00
2023-05-22T22:28:54.768Z,49.10
2023-05-22T22:32:37.274Z,49.30
2023-05-22T22:36:19.076Z,49.50
2023-05-22T22:40:00.809Z,49.70
2023-05-22T22:43:42.544Z,49.80
2023-05-22T22:47:25.127Z,49.70
2023-05-22T22:51:07.045Z,49.70
2023-05-22T22:54:49.019Z,49.60
2023-05-22T22:58:31.295Z,49.60
2023-05-22T23:02:13.186Z,49.50
2023-05-22T23:05:54.937Z,49.40
2023-05-22T23:09:36.816Z,49.20
2023-05-22T23:13:18.686Z,49.20
2023-05-22T23:17:00.562Z,49.40
2023-05-22T23:20:42.393Z,49.50
2023-05-22T23:24:24.129Z,49.70
2023-05-22T23:28:06.935Z,49.80
2023-05-22T23:31:50.478Z,49.90
2023-05-22T23:35:32.380Z,49.90
2023-05-22T23:39:14.139Z,50.00
2023-05-22T23:42:55.894Z,50.10
2023-05-22T23:46:39.616Z,50.10
2023-05-22T23:50:21.483Z,50.00
2023-05-22T23:54:03.353Z,50.00
2023-05-22T23:57:45.259Z,49.80
